Minot AFB, North Dakota
Current Conditions -  °F | °C
As of 9:14 AM on Monday 22 Dec 2014 (Local Time) from KMIB Reporting Station
Freezing Drizzle Freezing Drizzle  
Wind Chill: 23°   Ceiling: 400
Heat Index: 28°   Visibility: 5mi
Dew Point: 28°   Wind: 5mph
Humidity: 100%   Direction: 60°ENE
Pressure: 29.52"   Gusts: NA
Location:  48.42°N, 101.33°W
Report Text: KMIB 221514Z 06004KT 5SM -FZDZ BR OVC004 M02/M02 A2952 RMK AO2A UPB1457E1508 $
Loading
Personal Weather Stations






























Interactive Weather Map New forecast layout! Learn more

10-Day Weather Forecast

Advertisements
Track Severe Weather on mobile